Terminal Aerodrome Forecast
Issued by NWS San Angelo, TX

Home | Current Version | Previous Version | Text Only | Print | Product List | Glossary On
Versions: 1 2 3 4 5 6 7 8 9 10 11 12 13 14 15 16 17 18 19 20 21 22 23
625
FTUS44 KSJT 241129
TAFABI
TAF
KABI 241129Z 2412/2512 VRB05KT 1SM -DZ BR OVC002
      TEMPO 2412/2414 1/2SM FG
     FM241400 23008KT 3SM -DZ BR OVC005
     FM241600 27012KT P6SM SKC
     FM241800 28018G26KT P6SM SKC
     FM250000 29011KT P6SM SKC=

USA.gov is the U.S. government's official web portal to all federal, state and local government web resources and services.